TRA93B EGSS-EHRD
Flight info
| Callsign | TRA93B |
|---|---|
| Flight time | 0h 36m |
| Altitude | 23000 |
| Route | CLN P44 RATLO M197 REDFA |
| Aircraft | B738/M-SDE2E3FGHIRWXY/LB1 |
Departure
| Time | 2026-05-06 17:10 |
|---|---|
| Airport | London Stansted Airport (EGSS) |
Arrival
| Time | 2026-05-06 17:46 |
|---|---|
| Airport | Rotterdam The Hague Airport (EHRD) |
| Time | Latitude | Longitude | Altitude | Speed | Heading |
|---|---|---|---|---|---|
| 2026-05-06 16:38 | 51.88872 | 0.25384 | 347 ft | 0 kts | 44° |
| 2026-05-06 16:59 | 51.88865 | 0.25373 | 347 ft | 4 kts | 44° |
| 2026-05-06 16:59 | 51.88846 | 0.25343 | 353 ft | 4 kts | 44° |
| 2026-05-06 17:00 | 51.88828 | 0.25316 | 357 ft | 4 kts | 35° |
| 2026-05-06 17:00 | 51.88808 | 0.25306 | 351 ft | 4 kts | 333° |
| 2026-05-06 17:00 | 51.88790 | 0.25328 | 357 ft | 1 kts | 313° |
| 2026-05-06 17:00 | 51.88787 | 0.25334 | 355 ft | 0 kts | 313° |
| 2026-05-06 17:03 | 51.88787 | 0.25333 | 355 ft | 0 kts | 313° |
| 2026-05-06 17:03 | 51.88799 | 0.25314 | 354 ft | 7 kts | 313° |
| 2026-05-06 17:03 | 51.88845 | 0.25234 | 352 ft | 12 kts | 314° |
| 2026-05-06 17:04 | 51.88911 | 0.25121 | 347 ft | 16 kts | 313° |
| 2026-05-06 17:04 | 51.88969 | 0.24976 | 352 ft | 15 kts | 263° |
| 2026-05-06 17:04 | 51.88893 | 0.24845 | 346 ft | 18 kts | 223° |
| 2026-05-06 17:04 | 51.88788 | 0.24688 | 346 ft | 23 kts | 223° |
| 2026-05-06 17:05 | 51.88664 | 0.24501 | 350 ft | 19 kts | 223° |
| 2026-05-06 17:05 | 51.88565 | 0.24349 | 349 ft | 22 kts | 223° |
| 2026-05-06 17:05 | 51.88442 | 0.24169 | 349 ft | 26 kts | 222° |
| 2026-05-06 17:05 | 51.88301 | 0.23959 | 345 ft | 30 kts | 223° |
| 2026-05-06 17:06 | 51.88167 | 0.23756 | 344 ft | 24 kts | 223° |
| 2026-05-06 17:06 | 51.88039 | 0.23565 | 352 ft | 26 kts | 223° |
| 2026-05-06 17:06 | 51.87909 | 0.23371 | 342 ft | 22 kts | 223° |
| 2026-05-06 17:06 | 51.87811 | 0.23223 | 350 ft | 19 kts | 223° |
| 2026-05-06 17:07 | 51.87730 | 0.23064 | 345 ft | 16 kts | 266° |
| 2026-05-06 17:07 | 51.87790 | 0.22922 | 345 ft | 15 kts | 312° |
| 2026-05-06 17:07 | 51.87869 | 0.22784 | 338 ft | 19 kts | 313° |
| 2026-05-06 17:07 | 51.87946 | 0.22668 | 339 ft | 12 kts | 346° |
| 2026-05-06 17:08 | 51.87995 | 0.22718 | 335 ft | 0 kts | 42° |
| 2026-05-06 17:09 | 51.88108 | 0.22881 | 334 ft | 57 kts | 42° |
| 2026-05-06 17:10 | 51.88556 | 0.23561 | 338 ft | 119 kts | 43° |
| 2026-05-06 17:10 | 51.89286 | 0.24669 | 465 ft | 155 kts | 43° |
| 2026-05-06 17:10 | 51.90049 | 0.25921 | 1118 ft | 159 kts | 44° |
| 2026-05-06 17:10 | 51.90802 | 0.27201 | 1819 ft | 159 kts | 46° |
| 2026-05-06 17:11 | 51.91428 | 0.28789 | 2284 ft | 179 kts | 64° |
| 2026-05-06 17:11 | 51.91694 | 0.30885 | 2536 ft | 208 kts | 89° |
| 2026-05-06 17:11 | 51.91299 | 0.33260 | 2770 ft | 231 kts | 114° |
| 2026-05-06 17:11 | 51.90541 | 0.35586 | 3277 ft | 234 kts | 114° |
| 2026-05-06 17:12 | 51.89819 | 0.37937 | 3853 ft | 235 kts | 113° |
| 2026-05-06 17:12 | 51.89079 | 0.40415 | 3973 ft | 255 kts | 114° |
| 2026-05-06 17:12 | 51.88300 | 0.43031 | 3995 ft | 260 kts | 113° |
| 2026-05-06 17:12 | 51.87520 | 0.45670 | 3997 ft | 260 kts | 113° |
| 2026-05-06 17:13 | 51.86746 | 0.48301 | 3995 ft | 258 kts | 113° |
| 2026-05-06 17:13 | 51.85978 | 0.50915 | 4003 ft | 257 kts | 113° |
| 2026-05-06 17:13 | 51.85211 | 0.53525 | 3997 ft | 256 kts | 113° |
| 2026-05-06 17:13 | 51.84449 | 0.56118 | 4003 ft | 256 kts | 113° |
| 2026-05-06 17:14 | 51.83688 | 0.58723 | 3998 ft | 256 kts | 111° |
| 2026-05-06 17:14 | 51.83160 | 0.61465 | 3993 ft | 255 kts | 98° |
| 2026-05-06 17:14 | 51.82968 | 0.64333 | 4291 ft | 259 kts | 90° |
| 2026-05-06 17:14 | 51.83027 | 0.67230 | 4913 ft | 258 kts | 85° |
| 2026-05-06 17:15 | 51.83149 | 0.70126 | 4950 ft | 256 kts | 84° |
| 2026-05-06 17:15 | 51.83279 | 0.72980 | 4987 ft | 255 kts | 84° |
| 2026-05-06 17:15 | 51.83402 | 0.75888 | 5362 ft | 262 kts | 84° |
| 2026-05-06 17:15 | 51.83521 | 0.78845 | 5883 ft | 266 kts | 85° |
| 2026-05-06 17:16 | 51.83635 | 0.81801 | 5956 ft | 263 kts | 85° |
| 2026-05-06 17:16 | 51.83743 | 0.84767 | 5975 ft | 266 kts | 85° |
| 2026-05-06 17:16 | 51.83852 | 0.87766 | 5979 ft | 267 kts | 85° |
| 2026-05-06 17:16 | 51.83960 | 0.90772 | 5969 ft | 267 kts | 85° |
| 2026-05-06 17:17 | 51.84067 | 0.93764 | 5968 ft | 267 kts | 85° |
| 2026-05-06 17:17 | 51.84174 | 0.96763 | 5967 ft | 267 kts | 85° |
| 2026-05-06 17:17 | 51.84280 | 0.99772 | 5966 ft | 268 kts | 85° |
| 2026-05-06 17:17 | 51.84386 | 1.02780 | 5958 ft | 268 kts | 85° |
| 2026-05-06 17:18 | 51.84492 | 1.05793 | 5969 ft | 268 kts | 85° |
| 2026-05-06 17:18 | 51.84595 | 1.08800 | 5970 ft | 268 kts | 84° |
| 2026-05-06 17:18 | 51.84699 | 1.11818 | 5973 ft | 269 kts | 84° |
| 2026-05-06 17:18 | 51.84770 | 1.13812 | 5966 ft | 269 kts | 83° |
| 2026-05-06 17:19 | 51.85216 | 1.16730 | 6067 ft | 269 kts | 65° |
| 2026-05-06 17:19 | 51.85990 | 1.19504 | 6736 ft | 272 kts | 64° |
| 2026-05-06 17:19 | 51.86776 | 1.22313 | 7524 ft | 275 kts | 64° |
| 2026-05-06 17:19 | 51.87826 | 1.26108 | 8531 ft | 282 kts | 64° |
| 2026-05-06 17:20 | 51.88366 | 1.28077 | 9042 ft | 286 kts | 64° |
| 2026-05-06 17:20 | 51.89176 | 1.31048 | 9821 ft | 291 kts | 65° |
| 2026-05-06 17:20 | 51.89998 | 1.34084 | 10390 ft | 303 kts | 65° |
| 2026-05-06 17:20 | 51.90879 | 1.37347 | 10577 ft | 328 kts | 65° |
| 2026-05-06 17:21 | 51.91813 | 1.40819 | 11010 ft | 342 kts | 65° |
| 2026-05-06 17:21 | 51.92767 | 1.44384 | 11716 ft | 347 kts | 65° |
| 2026-05-06 17:21 | 51.93717 | 1.47941 | 12492 ft | 350 kts | 66° |
| 2026-05-06 17:21 | 51.94700 | 1.51631 | 13291 ft | 354 kts | 65° |
| 2026-05-06 17:22 | 51.95671 | 1.55276 | 14015 ft | 359 kts | 65° |
| 2026-05-06 17:22 | 51.96680 | 1.59068 | 14771 ft | 363 kts | 66° |
| 2026-05-06 17:22 | 51.97670 | 1.62795 | 15463 ft | 368 kts | 66° |
| 2026-05-06 17:22 | 51.98688 | 1.66635 | 16209 ft | 372 kts | 66° |
| 2026-05-06 17:23 | 51.99583 | 1.70590 | 16963 ft | 376 kts | 73° |
| 2026-05-06 17:23 | 52.00262 | 1.74726 | 17637 ft | 382 kts | 76° |
| 2026-05-06 17:23 | 52.00891 | 1.78931 | 18394 ft | 385 kts | 77° |
| 2026-05-06 17:23 | 52.01518 | 1.83195 | 18950 ft | 391 kts | 77° |
| 2026-05-06 17:24 | 52.02159 | 1.87499 | 19606 ft | 393 kts | 77° |
| 2026-05-06 17:24 | 52.02813 | 1.91827 | 20259 ft | 397 kts | 77° |
| 2026-05-06 17:24 | 52.03478 | 1.96182 | 20945 ft | 398 kts | 76° |
| 2026-05-06 17:24 | 52.04149 | 2.00543 | 21400 ft | 398 kts | 76° |
| 2026-05-06 17:25 | 52.04814 | 2.04857 | 21253 ft | 388 kts | 76° |
| 2026-05-06 17:25 | 52.05459 | 2.09036 | 21191 ft | 375 kts | 76° |
| 2026-05-06 17:25 | 52.06084 | 2.13102 | 21173 ft | 369 kts | 77° |
| 2026-05-06 17:25 | 52.06705 | 2.17152 | 21184 ft | 370 kts | 77° |
| 2026-05-06 17:26 | 52.07325 | 2.21208 | 21183 ft | 370 kts | 77° |
| 2026-05-06 17:26 | 52.07943 | 2.25265 | 21178 ft | 370 kts | 77° |
| 2026-05-06 17:26 | 52.08562 | 2.29334 | 21186 ft | 370 kts | 77° |
| 2026-05-06 17:26 | 52.09178 | 2.33398 | 21163 ft | 371 kts | 77° |
| 2026-05-06 17:27 | 52.09796 | 2.37474 | 21164 ft | 371 kts | 77° |
| 2026-05-06 17:27 | 52.10410 | 2.41545 | 21174 ft | 371 kts | 77° |
| 2026-05-06 17:27 | 52.11010 | 2.45622 | 21161 ft | 371 kts | 80° |
| 2026-05-06 17:27 | 52.11031 | 2.49776 | 21165 ft | 367 kts | 102° |
| 2026-05-06 17:28 | 52.10255 | 2.53690 | 21179 ft | 363 kts | 115° |
| 2026-05-06 17:28 | 52.09225 | 2.57437 | 21156 ft | 361 kts | 117° |
| 2026-05-06 17:28 | 52.08176 | 2.61089 | 20775 ft | 353 kts | 117° |
| 2026-05-06 17:28 | 52.07129 | 2.64704 | 20143 ft | 352 kts | 117° |
| 2026-05-06 17:29 | 52.06090 | 2.68306 | 19420 ft | 352 kts | 117° |
| 2026-05-06 17:29 | 52.05056 | 2.71919 | 18748 ft | 352 kts | 117° |
| 2026-05-06 17:29 | 52.04031 | 2.75522 | 18073 ft | 352 kts | 116° |
| 2026-05-06 17:29 | 52.03013 | 2.79112 | 17479 ft | 346 kts | 116° |
| 2026-05-06 17:30 | 52.02015 | 2.82641 | 16894 ft | 341 kts | 116° |
| 2026-05-06 17:30 | 52.01029 | 2.86129 | 16201 ft | 340 kts | 116° |
| 2026-05-06 17:30 | 52.00046 | 2.89601 | 15657 ft | 336 kts | 115° |
| 2026-05-06 17:30 | 51.99077 | 2.93022 | 15065 ft | 333 kts | 115° |
| 2026-05-06 17:31 | 51.98114 | 2.96418 | 14510 ft | 329 kts | 115° |
| 2026-05-06 17:31 | 51.97162 | 2.99770 | 13979 ft | 325 kts | 115° |
| 2026-05-06 17:31 | 51.96219 | 3.03084 | 13357 ft | 323 kts | 115° |
| 2026-05-06 17:31 | 51.95279 | 3.06383 | 12720 ft | 322 kts | 114° |
| 2026-05-06 17:32 | 51.94343 | 3.09668 | 12098 ft | 320 kts | 114° |
| 2026-05-06 17:32 | 51.93414 | 3.12919 | 11554 ft | 315 kts | 114° |
| 2026-05-06 17:32 | 51.92501 | 3.16113 | 11147 ft | 308 kts | 114° |
| 2026-05-06 17:32 | 51.91623 | 3.19179 | 10866 ft | 296 kts | 114° |
| 2026-05-06 17:33 | 51.90763 | 3.22177 | 10529 ft | 289 kts | 114° |
| 2026-05-06 17:33 | 51.89919 | 3.25116 | 10071 ft | 288 kts | 114° |
| 2026-05-06 17:33 | 51.89082 | 3.28032 | 9671 ft | 283 kts | 114° |
| 2026-05-06 17:33 | 51.88256 | 3.30903 | 9208 ft | 280 kts | 114° |
| 2026-05-06 17:34 | 51.87439 | 3.33738 | 8738 ft | 277 kts | 114° |
| 2026-05-06 17:34 | 51.86625 | 3.36562 | 8315 ft | 277 kts | 114° |
| 2026-05-06 17:34 | 51.85809 | 3.39388 | 7985 ft | 277 kts | 113° |
| 2026-05-06 17:34 | 51.84996 | 3.42201 | 7684 ft | 276 kts | 114° |
| 2026-05-06 17:35 | 51.84184 | 3.45007 | 7426 ft | 274 kts | 114° |
| 2026-05-06 17:35 | 51.83379 | 3.47788 | 7133 ft | 273 kts | 114° |
| 2026-05-06 17:35 | 51.82575 | 3.50563 | 6836 ft | 272 kts | 114° |
| 2026-05-06 17:36 | 51.80974 | 3.56066 | 6264 ft | 269 kts | 114° |
| 2026-05-06 17:36 | 51.80217 | 3.58820 | 5966 ft | 267 kts | 105° |
| 2026-05-06 17:36 | 51.80126 | 3.61730 | 5789 ft | 257 kts | 81° |
| 2026-05-06 17:36 | 51.80406 | 3.64505 | 5628 ft | 252 kts | 78° |
| 2026-05-06 17:37 | 51.80717 | 3.67288 | 5470 ft | 250 kts | 78° |
| 2026-05-06 17:37 | 51.81028 | 3.70049 | 5309 ft | 250 kts | 78° |
| 2026-05-06 17:37 | 51.81338 | 3.72827 | 5146 ft | 251 kts | 78° |
| 2026-05-06 17:37 | 51.81645 | 3.75608 | 4994 ft | 252 kts | 78° |
| 2026-05-06 17:38 | 51.81950 | 3.78396 | 4831 ft | 251 kts | 78° |
| 2026-05-06 17:38 | 51.82251 | 3.81165 | 4680 ft | 249 kts | 79° |
| 2026-05-06 17:38 | 51.82545 | 3.83901 | 4522 ft | 246 kts | 78° |
| 2026-05-06 17:38 | 51.82838 | 3.86630 | 4434 ft | 246 kts | 78° |
| 2026-05-06 17:39 | 51.83130 | 3.89357 | 4410 ft | 246 kts | 78° |
| 2026-05-06 17:39 | 51.83420 | 3.92083 | 4331 ft | 247 kts | 78° |
| 2026-05-06 17:39 | 51.83717 | 3.94871 | 4040 ft | 251 kts | 77° |
| 2026-05-06 17:39 | 51.84008 | 3.97622 | 3869 ft | 246 kts | 78° |
| 2026-05-06 17:40 | 51.84291 | 4.00315 | 3689 ft | 241 kts | 78° |
| 2026-05-06 17:40 | 51.84572 | 4.02975 | 3538 ft | 240 kts | 78° |
| 2026-05-06 17:40 | 51.84849 | 4.05621 | 3389 ft | 236 kts | 77° |
| 2026-05-06 17:40 | 51.85121 | 4.08206 | 3234 ft | 230 kts | 78° |
| 2026-05-06 17:41 | 51.85385 | 4.10730 | 3088 ft | 225 kts | 78° |
| 2026-05-06 17:41 | 51.85642 | 4.13192 | 2951 ft | 220 kts | 78° |
| 2026-05-06 17:41 | 51.85893 | 4.15599 | 2813 ft | 214 kts | 78° |
| 2026-05-06 17:41 | 51.86132 | 4.17910 | 2708 ft | 203 kts | 78° |
| 2026-05-06 17:42 | 51.86361 | 4.20089 | 2574 ft | 190 kts | 76° |
| 2026-05-06 17:42 | 51.86890 | 4.21958 | 2437 ft | 179 kts | 53° |
| 2026-05-06 17:42 | 51.87577 | 4.23577 | 2326 ft | 172 kts | 58° |
| 2026-05-06 17:42 | 51.88193 | 4.25210 | 2219 ft | 169 kts | 58° |
| 2026-05-06 17:43 | 51.88829 | 4.26825 | 2121 ft | 173 kts | 57° |
| 2026-05-06 17:43 | 51.89472 | 4.28440 | 2033 ft | 164 kts | 57° |
| 2026-05-06 17:43 | 51.90072 | 4.29946 | 1906 ft | 157 kts | 57° |
| 2026-05-06 17:43 | 51.90655 | 4.31410 | 1722 ft | 153 kts | 57° |
| 2026-05-06 17:44 | 51.91209 | 4.32800 | 1498 ft | 142 kts | 58° |
| 2026-05-06 17:44 | 51.91724 | 4.34094 | 1316 ft | 132 kts | 57° |
| 2026-05-06 17:44 | 51.92218 | 4.35333 | 1161 ft | 130 kts | 56° |
| 2026-05-06 17:44 | 51.92709 | 4.36563 | 973 ft | 130 kts | 57° |
| 2026-05-06 17:45 | 51.93199 | 4.37791 | 804 ft | 130 kts | 57° |
| 2026-05-06 17:45 | 51.93702 | 4.39063 | 577 ft | 139 kts | 58° |
| 2026-05-06 17:45 | 51.94234 | 4.40403 | 383 ft | 142 kts | 57° |
| 2026-05-06 17:45 | 51.94768 | 4.41739 | 212 ft | 140 kts | 57° |
| 2026-05-06 17:46 | 51.95284 | 4.43009 | 30 ft | 130 kts | 58° |
| 2026-05-06 17:46 | 51.95725 | 4.44121 | 0 ft | 94 kts | 57° |
| 2026-05-06 17:46 | 51.95905 | 4.44572 | -3 ft | 21 kts | 60° |
| 2026-05-06 17:46 | 51.95885 | 4.44699 | -1 ft | 11 kts | 141° |
| 2026-05-06 17:47 | 51.95820 | 4.44762 | 1 ft | 11 kts | 169° |
| 2026-05-06 17:47 | 51.95762 | 4.44697 | 0 ft | 11 kts | 237° |
| 2026-05-06 17:47 | 51.95722 | 4.44598 | 0 ft | 10 kts | 237° |
| 2026-05-06 17:47 | 51.95683 | 4.44501 | 0 ft | 10 kts | 237° |
| 2026-05-06 17:48 | 51.95640 | 4.44392 | 0 ft | 13 kts | 237° |
| 2026-05-06 17:48 | 51.95580 | 4.44245 | 0 ft | 18 kts | 237° |
| 2026-05-06 17:48 | 51.95508 | 4.44064 | 0 ft | 19 kts | 237° |
| 2026-05-06 17:48 | 51.95431 | 4.43869 | 1 ft | 14 kts | 237° |
| 2026-05-06 17:49 | 51.95368 | 4.43712 | 0 ft | 19 kts | 237° |
| 2026-05-06 17:49 | 51.95313 | 4.43575 | 1 ft | 12 kts | 237° |
| 2026-05-06 17:49 | 51.95267 | 4.43501 | 0 ft | 10 kts | 187° |
| 2026-05-06 17:49 | 51.95208 | 4.43548 | 0 ft | 10 kts | 147° |
| 2026-05-06 17:50 | 51.95150 | 4.43609 | 0 ft | 10 kts | 147° |
| 2026-05-06 17:50 | 51.95100 | 4.43591 | 1 ft | 9 kts | 230° |
| 2026-05-06 17:50 | 51.95065 | 4.43511 | 0 ft | 8 kts | 236° |
| 2026-05-06 17:50 | 51.95060 | 4.43465 | 0 ft | 2 kts | 312° |
| 2026-05-06 17:51 | 51.95064 | 4.43460 | 0 ft | 2 kts | 317° |
| 2026-05-06 17:51 | 51.95082 | 4.43438 | 0 ft | 3 kts | 326° |
| 2026-05-06 17:51 | 51.95092 | 4.43427 | 0 ft | 0 kts | 326° |